Time;durP1;ratioP1;P1;durP2;ratioP2;P2;SDS_P1;SDS_P2;PMS_P1;PMS_P2;Temp;Humidity;BMP_temperature;BMP_pressure;BME280_temperature;BME280_humidity;BME280_pressure;Samples;Min_cycle;Max_cycle;Signal;HPM_P1;HPM_P2
2022/09/20 00:00:38;;;;;;;;;;;;;;;12.63;67.54;101426.84;4806369;29;119584;-72
2022/09/20 00:03:03;;;;;;;;;;;;;;;12.62;67.89;101425.31;4814207;29;119817;-71
2022/09/20 00:05:31;;;;;;;;;;;;;;;12.61;67.74;101423.78;4814955;29;119733;-72
2022/09/20 00:07:57;;;;;;;;;;;;;;;12.58;67.61;101427.41;4829153;29;119778;-74
2022/09/20 00:10:26;;;;;;;;;;;;;;;12.57;67.38;101428.63;4816883;29;122015;-72
2022/09/20 00:12:52;;;;;;;;;;;;;;;12.54;67.46;101427.53;4816271;29;119434;-72
2022/09/20 00:15:44;;;;;;;;;;;;;;;12.51;67.51;101433.13;4814809;29;119923;-72
2022/09/20 00:18:13;;;;;;;;;;;;;;;12.47;67.62;101435.25;4810001;29;120094;-72
2022/09/20 00:20:45;;;;;;;;;;;;;;;12.46;67.73;101430.97;4806514;29;120012;-73
2022/09/20 00:23:14;;;;;;;;;;;;;;;12.46;67.42;101430.97;4791795;29;120685;-72
2022/09/20 00:25:40;;;;;;;;;;;;;;;12.44;67.62;101427.88;4815285;29;119486;-72
2022/09/20 00:28:06;;;;;;;;;;;;;;;12.43;67.74;101437.34;4814357;29;121485;-72
2022/09/20 00:30:32;;;;;;;;;;;;;;;12.42;67.38;101438.56;4813643;29;121350;-73
2022/09/20 00:32:58;;;;;;;;;;;;;;;12.40;67.29;101444.53;4819067;29;119746;-72
2022/09/20 00:35:24;;;;;;;;;;;;;;;12.40;67.39;101443.75;4814752;29;119831;-72
2022/09/20 00:37:49;;;;;;;;;;;;;;;12.39;67.34;101448.50;4812237;29;119565;-72
2022/09/20 00:40:17;;;;;;;;;;;;;;;12.39;67.79;101453.22;4812903;29;119849;-74
2022/09/20 00:42:42;;;;;;;;;;;;;;;12.38;67.45;101451.69;4808358;29;120195;-72
2022/09/20 00:45:11;;;;;;;;;;;;;;;12.38;67.50;101454.44;4814189;29;119405;-71
2022/09/20 00:47:45;;;;;;;;;;;;;;;12.36;67.49;101454.88;4815678;29;119734;-72
2022/09/20 00:50:24;;;;;;;;;;;;;;;12.35;67.27;101460.81;4812686;29;121713;-72
2022/09/20 00:52:53;;;;;;;;;;;;;;;12.33;67.67;101455.00;4818340;29;119590;-73
2022/09/20 00:55:22;;;;;;;;;;;;;;;12.32;67.70;101453.47;4814155;29;119419;-73
2022/09/20 00:57:48;;;;;;;;;;;;;;;12.31;67.57;101454.69;4802605;29;119750;-71
2022/09/20 01:00:13;;;;;;;;;;;;;;;12.29;67.68;101458.63;4806509;29;120240;-72
2022/09/20 01:02:41;;;;;;;;;;;;;;;12.31;67.79;101451.94;4813185;29;122272;-72
2022/09/20 01:05:08;;;;;;;;;;;;;;;12.31;67.76;101457.44;4814171;29;119613;-72
2022/09/20 01:07:34;;;;;;;;;;;;;;;12.29;67.82;101455.88;4813423;29;120283;-72
2022/09/20 01:10:19;;;;;;;;;;;;;;;12.28;67.71;101448.81;4812628;29;120734;-72
2022/09/20 01:12:45;;;;;;;;;;;;;;;12.26;67.40;101454.00;4815205;29;119483;-72
2022/09/20 01:15:12;;;;;;;;;;;;;;;12.26;67.54;101458.72;4811258;29;120133;-72
2022/09/20 01:17:40;;;;;;;;;;;;;;;12.24;67.71;101448.19;4812904;29;120315;-73
2022/09/20 01:20:06;;;;;;;;;;;;;;;12.25;67.46;101455.22;4808854;29;119735;-72
2022/09/20 01:22:37;;;;;;;;;;;;;;;12.26;67.64;101444.97;4794136;29;119757;-72
2022/09/20 01:25:03;;;;;;;;;;;;;;;12.27;67.69;101452.78;4813857;29;119968;-72
2022/09/20 01:27:39;;;;;;;;;;;;;;;12.28;68.09;101448.81;4811258;29;120160;-72
2022/09/20 01:30:07;;;;;;;;;;;;;;;12.27;67.88;101446.50;4809129;29;119731;-73
2022/09/20 01:32:45;;;;;;;;;;;;;;;12.26;67.50;101450.47;4812635;29;120070;-73
2022/09/20 01:35:11;;;;;;;;;;;;;;;12.25;67.73;101448.94;4809122;29;119646;-73
2022/09/20 01:37:37;;;;;;;;;;;;;;;12.23;67.32;101456.88;4814979;29;120380;-72
2022/09/20 01:40:09;;;;;;;;;;;;;;;12.23;67.44;101454.13;4813517;29;119305;-71
2022/09/20 01:42:37;;;;;;;;;;;;;;;12.21;67.57;101454.56;4809952;29;119306;-71
2022/09/20 01:45:29;;;;;;;;;;;;;;;12.17;67.31;101455.91;4812195;29;119367;-73
2022/09/20 01:48:03;;;;;;;;;;;;;;;12.13;67.50;101455.25;4813014;29;119887;-72
2022/09/20 01:50:48;;;;;;;;;;;;;;;12.09;67.30;101458.13;4812827;29;119925;-73
2022/09/20 01:53:32;;;;;;;;;;;;;;;12.04;66.80;101455.91;4810866;29;120019;-71
2022/09/20 01:56:17;;;;;;;;;;;;;;;11.99;66.87;101467.47;4805787;29;121464;-71
2022/09/20 01:59:01;;;;;;;;;;;;;;;11.94;66.86;101465.25;4813311;29;119360;-72
2022/09/20 02:01:36;;;;;;;;;;;;;;;11.89;66.56;101463.06;4813660;29;119513;-75
2022/09/20 02:04:02;;;;;;;;;;;;;;;11.83;66.63;101467.56;4805233;29;120434;-74
2022/09/20 02:06:28;;;;;;;;;;;;;;;11.77;66.42;101461.06;4813497;29;119692;-72
2022/09/20 02:09:32;;;;;;;;;;;;;;;11.72;66.51;101464.34;4795088;29;119735;-71
2022/09/20 02:12:00;;;;;;;;;;;;;;;11.66;66.40;101464.91;4810167;29;119639;-72
2022/09/20 02:14:29;;;;;;;;;;;;;;;11.62;66.32;101468.97;4811231;29;119949;-73
2022/09/20 02:16:56;;;;;;;;;;;;;;;11.57;66.63;101467.50;4813649;29;119829;-72
2022/09/20 02:19:24;;;;;;;;;;;;;;;11.54;66.44;101470.38;4803859;29;120101;-72
2022/09/20 02:21:53;;;;;;;;;;;;;;;11.51;66.43;101474.00;4813500;29;119557;-72
2022/09/20 02:24:34;;;;;;;;;;;;;;;11.46;66.34;101466.31;4817334;29;119926;-73
2022/09/20 02:27:32;;;;;;;;;;;;;;;11.41;66.25;101470.38;4768710;29;119575;-71
2022/09/20 02:30:07;;;;;;;;;;;;;;;11.38;66.01;101468.50;4811279;29;119711;-71
2022/09/20 02:32:38;;;;;;;;;;;;;;;11.34;66.25;101473.28;4813392;29;121171;-72
2022/09/20 02:35:23;;;;;;;;;;;;;;;11.29;66.01;101480.09;4808223;29;119836;-72
2022/09/20 02:37:57;;;;;;;;;;;;;;;11.26;66.70;101474.72;4812431;29;119466;-72
2022/09/20 02:40:41;;;;;;;;;;;;;;;11.23;66.39;101478.34;4793116;29;123010;-73
2022/09/20 02:43:25;;;;;;;;;;;;;;;11.20;66.27;101479.97;4812923;29;119816;-74
2022/09/20 02:46:03;;;;;;;;;;;;;;;11.15;66.14;101471.50;4815619;29;119438;-74
2022/09/20 02:48:34;;;;;;;;;;;;;;;11.12;66.33;101477.84;4803584;29;119916;-72
2022/09/20 02:51:53;;;;;;;;;;;;;;;11.10;65.88;101475.53;4750948;29;120326;-72
2022/09/20 02:54:37;;;;;;;;;;;;;;;11.08;66.44;101481.47;4743563;29;119873;-71
2022/09/20 02:57:18;;;;;;;;;;;;;;;11.06;66.49;101478.38;4812232;29;120391;-72
2022/09/20 03:00:00;;;;;;;;;;;;;;;11.04;66.08;101475.31;4781683;29;119285;-74
2022/09/20 03:02:26;;;;;;;;;;;;;;;11.01;66.19;101476.16;4812566;29;119768;-73
2022/09/20 03:04:55;;;;;;;;;;;;;;;11.01;66.21;101489.13;4815252;29;119505;-72
2022/09/20 03:07:33;;;;;;;;;;;;;;;10.99;66.19;101486.81;4814943;29;120124;-72
2022/09/20 03:10:19;;;;;;;;;;;;;;;10.99;66.33;101488.78;4819889;29;119638;-72
2022/09/20 03:12:56;;;;;;;;;;;;;;;10.98;66.03;101481.75;4813974;29;119406;-71
2022/09/20 03:15:48;;;;;;;;;;;;;;;10.97;66.34;101491.22;4819804;29;120041;-72
2022/09/20 03:18:16;;;;;;;;;;;;;;;10.98;66.47;101490.00;4792868;29;119407;-74
2022/09/20 03:21:00;;;;;;;;;;;;;;;10.98;66.37;101488.03;4816945;29;119699;-71
2022/09/20 03:23:50;;;;;;;;;;;;;;;10.96;66.41;101489.66;4815624;29;119668;-72
2022/09/20 03:26:19;;;;;;;;;;;;;;;10.93;66.28;101488.56;4813161;29;119529;-74
2022/09/20 03:28:51;;;;;;;;;;;;;;;10.93;66.49;101491.31;4815407;29;119300;-71
2022/09/20 03:31:25;;;;;;;;;;;;;;;10.91;66.62;101493.72;4807723;29;119311;-72
2022/09/20 03:34:00;;;;;;;;;;;;;;;10.87;65.98;101501.25;4818383;29;119776;-71
2022/09/20 03:36:26;;;;;;;;;;;;;;;10.82;65.83;101495.53;4810973;29;119511;-73
2022/09/20 03:39:29;;;;;;;;;;;;;;;10.76;65.86;101498.03;4815675;29;119378;-71
2022/09/20 03:41:55;;;;;;;;;;;;;;;10.71;65.98;101498.56;4816973;29;119185;-72
2022/09/20 03:44:33;;;;;;;;;;;;;;;10.69;65.71;101507.22;4815057;29;119895;-73
2022/09/20 03:47:07;;;;;;;;;;;;;;;10.65;65.69;101501.06;4814160;29;119525;-72
2022/09/20 03:49:55;;;;;;;;;;;;;;;10.64;66.22;101499.47;4816418;29;119418;-71
2022/09/20 03:52:39;;;;;;;;;;;;;;;10.64;66.03;101512.44;4811434;29;119858;-71
2022/09/20 03:55:12;;;;;;;;;;;;;;;10.64;66.25;101501.44;4811926;29;119551;-71
2022/09/20 03:57:38;;;;;;;;;;;;;;;10.65;66.39;101492.03;4820184;29;120081;-73
2022/09/20 04:00:10;;;;;;;;;;;;;;;10.66;66.25;101499.84;4815797;29;119661;-72
2022/09/20 04:02:54;;;;;;;;;;;;;;;10.67;66.01;101495.13;4814528;29;119332;-74
2022/09/20 04:05:27;;;;;;;;;;;;;;;10.65;65.99;101503.03;4799601;29;120939;-72
2022/09/20 04:08:03;;;;;;;;;;;;;;;10.65;66.03;101503.78;4815998;29;119720;-71
2022/09/20 04:10:49;;;;;;;;;;;;;;;10.66;66.39;101504.56;4825383;29;119952;-71
2022/09/20 04:13:34;;;;;;;;;;;;;;;10.66;66.67;101499.06;4800584;29;120657;-72
2022/09/20 04:16:12;;;;;;;;;;;;;;;10.64;66.59;101504.97;4827008;29;119507;-72
2022/09/20 04:18:51;;;;;;;;;;;;;;;10.65;66.38;101508.50;4815260;29;119851;-72
2022/09/20 04:21:43;;;;;;;;;;;;;;;10.63;66.30;101514.41;4814938;29;119785;-72
2022/09/20 04:24:15;;;;;;;;;;;;;;;10.64;66.38;101504.97;4783448;29;119622;-71
2022/09/20 04:26:44;;;;;;;;;;;;;;;10.64;66.57;101517.91;4815436;29;119659;-74
2022/09/20 04:29:13;;;;;;;;;;;;;;;10.64;66.28;101520.66;4815749;29;119823;-72
2022/09/20 04:31:46;;;;;;;;;;;;;;;10.65;66.38;101516.75;4807326;29;119464;-73
2022/09/20 04:34:21;;;;;;;;;;;;;;;10.63;66.33;101521.84;4795791;29;121784;-71
2022/09/20 04:36:53;;;;;;;;;;;;;;;10.60;nan;101522.72;4774249;29;119557;-72
2022/09/20 04:39:26;;;;;;;;;;;;;;;10.57;65.94;101518.09;4824806;29;119674;-74
2022/09/20 04:42:15;;;;;;;;;;;;;;;10.53;66.07;101517.41;4806079;29;120626;-72
2022/09/20 04:44:40;;;;;;;;;;;;;;;10.50;65.98;101516.31;4815401;29;119809;-74
2022/09/20 04:47:08;;;;;;;;;;;;;;;10.48;65.75;101512.47;4814178;29;119453;-71
2022/09/20 04:49:56;;;;;;;;;;;;;;;10.45;66.17;101514.09;4814682;29;119844;-72
2022/09/20 04:53:06;;;;;;;;;;;;;;;10.40;65.88;101518.09;4806015;29;119476;-71
2022/09/20 04:55:57;;;;;;;;;;;;;;;10.34;65.50;101522.56;4811138;29;121965;-72
2022/09/20 04:59:06;;;;;;;;;;;;;;;10.29;66.00;101517.59;4775962;29;119598;-72
2022/09/20 05:01:51;;;;;;;;;;;;;;;10.27;65.81;101522.72;4772599;29;120092;-72
2022/09/20 05:04:20;;;;;;;;;;;;;;;10.23;65.87;101524.78;4757159;29;119738;-71
2022/09/20 05:07:03;;;;;;;;;;;;;;;10.22;65.96;101526.00;4777446;29;120382;-72
2022/09/20 05:09:47;;;;;;;;;;;;;;;10.24;66.41;101529.06;4773081;29;120160;-72
2022/09/20 05:12:27;;;;;;;;;;;;;;;10.26;66.38;101532.16;4774096;29;119760;-72
2022/09/20 05:15:15;;;;;;;;;;;;;;;10.28;66.41;101529.00;4762430;29;119760;-72
2022/09/20 05:17:50;;;;;;;;;;;;;;;10.30;65.94;101532.84;4775375;29;119770;-72
2022/09/20 05:20:34;;;;;;;;;;;;;;;10.30;66.10;101535.59;4774965;29;119411;-72
2022/09/20 05:23:11;;;;;;;;;;;;;;;10.30;66.23;101537.56;4775433;29;119492;-71
2022/09/20 05:25:55;;;;;;;;;;;;;;;10.28;65.81;101543.47;4772731;29;120866;-71
2022/09/20 05:28:23;;;;;;;;;;;;;;;10.29;65.82;101546.97;4775451;29;119507;-73
2022/09/20 05:31:09;;;;;;;;;;;;;;;10.24;65.86;101548.28;4778365;29;119359;-72
2022/09/20 05:33:52;;;;;;;;;;;;;;;10.26;65.57;101542.34;4775042;29;120717;-73
2022/09/20 05:36:55;;;;;;;;;;;;;;;10.26;65.80;101548.63;4798123;29;119525;-73
2022/09/20 05:39:20;;;;;;;;;;;;;;;10.28;65.79;101543.47;4812114;29;122146;-71
2022/09/20 05:41:51;;;;;;;;;;;;;;;10.29;65.64;101542.28;4798658;29;119635;-72
2022/09/20 05:44:31;;;;;;;;;;;;;;;10.31;66.30;101545.34;4813993;29;119634;-73
2022/09/20 05:47:38;;;;;;;;;;;;;;;10.34;66.75;101555.47;4787382;29;119931;-72
2022/09/20 05:50:23;;;;;;;;;;;;;;;10.37;66.43;101562.84;4795354;29;120230;-71
2022/09/20 05:53:07;;;;;;;;;;;;;;;10.40;66.40;101564.72;4804903;29;119491;-72
2022/09/20 05:55:50;;;;;;;;;;;;;;;10.44;66.28;101570.16;4815167;29;121186;-71
2022/09/20 05:58:31;;;;;;;;;;;;;;;10.49;66.55;101568.88;4823577;29;119328;-72
2022/09/20 06:01:11;;;;;;;;;;;;;;;10.54;66.54;101571.84;4795916;29;122011;-72
2022/09/20 06:03:47;;;;;;;;;;;;;;;10.59;66.66;101567.81;4804721;29;119337;-71
2022/09/20 06:06:29;;;;;;;;;;;;;;;10.66;66.82;101571.19;4799895;29;120035;-72
2022/09/20 06:09:04;;;;;;;;;;;;;;;10.76;66.94;101574.84;4814153;29;119789;-72
2022/09/20 06:11:42;;;;;;;;;;;;;;;10.76;67.00;101561.91;4813273;29;119803;-72
2022/09/20 06:14:28;;;;;;;;;;;;;;;10.95;67.20;101584.97;4808995;29;121507;-73
2022/09/20 06:16:53;;;;;;;;;;;;;;;11.06;67.09;101592.94;4792712;29;119550;-71
2022/09/20 06:19:25;;;;;;;;;;;;;;;11.13;67.05;101587.28;4820475;29;120016;-72
2022/09/20 06:21:53;;;;;;;;;;;;;;;11.20;66.93;101586.31;4813564;29;119761;-72
2022/09/20 06:24:23;;;;;;;;;;;;;;;11.26;66.72;101587.31;4816432;29;119952;-72
2022/09/20 06:26:51;;;;;;;;;;;;;;;11.32;67.23;101583.59;4817730;29;119381;-73
2022/09/20 06:29:21;;;;;;;;;;;;;;;11.40;67.23;101586.19;4815540;29;119958;-72
2022/09/20 06:31:46;;;;;;;;;;;;;;;11.48;67.39;101596.53;4814796;29;119717;-72
2022/09/20 06:34:13;;;;;;;;;;;;;;;11.55;67.40;101590.81;4816946;29;119636;-72
2022/09/20 06:42:23;;;;;;;;;;;;;;;11.89;68.08;101592.28;4820547;29;119702;-72
2022/09/20 06:44:48;;;;;;;;;;;;;;;12.01;68.18;101588.78;4816593;29;119319;-73
2022/09/20 06:47:14;;;;;;;;;;;;;;;12.13;68.37;101590.00;4777408;29;120609;-72
2022/09/20 06:49:45;;;;;;;;;;;;;;;12.26;68.53;101597.03;4807999;29;119564;-73
2022/09/20 06:52:15;;;;;;;;;;;;;;;12.40;68.71;101603.34;4806309;29;119469;-76
2022/09/20 06:54:44;;;;;;;;;;;;;;;12.52;68.78;101603.31;4814438;29;120548;-72
2022/09/20 06:57:11;;;;;;;;;;;;;;;12.65;68.84;101599.81;4813770;29;119415;-74
2022/09/20 06:59:37;;;;;;;;;;;;;;;12.76;68.97;101605.72;4813068;29;119574;-71
2022/09/20 07:02:09;;;;;;;;;;;;;;;12.88;68.52;101611.22;4817220;29;119929;-71
2022/09/20 07:04:35;;;;;;;;;;;;;;;13.00;68.70;101612.38;4810586;29;120662;-72
2022/09/20 07:07:01;;;;;;;;;;;;;;;13.09;68.76;101606.22;4810089;29;119752;-73
2022/09/20 07:09:27;;;;;;;;;;;;;;;13.20;68.37;101614.91;4797012;29;121996;-72
2022/09/20 07:11:57;;;;;;;;;;;;;;;13.28;68.66;101616.22;4813465;29;120164;-72
2022/09/20 07:14:25;;;;;;;;;;;;;;;13.36;68.35;101622.25;4811027;29;119531;-75
2022/09/20 07:16:51;;;;;;;;;;;;;;;13.44;68.68;101627.06;4792186;29;123442;-71
2022/09/20 07:19:17;;;;;;;;;;;;;;;13.52;68.32;101622.84;4811370;29;119978;-72
2022/09/20 07:21:43;;;;;;;;;;;;;;;13.61;68.58;101626.88;4824631;29;120306;-75
2022/09/20 07:24:08;;;;;;;;;;;;;;;13.68;68.77;101632.13;4798579;29;120204;-73
2022/09/20 07:27:01;;;;;;;;;;;;;;;13.75;68.74;101635.44;4810139;29;119762;-72
2022/09/20 07:29:27;;;;;;;;;;;;;;;13.82;68.57;101629.66;4792644;29;123223;-72
2022/09/20 07:31:53;;;;;;;;;;;;;;;13.88;68.76;101629.81;4808613;29;119968;-72
2022/09/20 07:34:19;;;;;;;;;;;;;;;13.96;68.74;101633.88;4811890;29;119701;-72
2022/09/20 07:36:49;;;;;;;;;;;;;;;14.03;68.66;101636.38;4792087;29;123562;-73
2022/09/20 07:39:15;;;;;;;;;;;;;;;14.09;68.72;101642.84;4809630;29;119530;-74
2022/09/20 07:41:42;;;;;;;;;;;;;;;14.16;68.19;101643.78;4822553;29;119562;-73
2022/09/20 07:44:20;;;;;;;;;;;;;;;14.22;68.44;101642.00;4790796;29;121860;-73
2022/09/20 07:46:56;;;;;;;;;;;;;;;14.28;68.37;101648.47;4813843;29;119653;-73
2022/09/20 07:49:30;;;;;;;;;;;;;;;14.34;68.54;101647.41;4804381;29;120056;-73
2022/09/20 07:51:57;;;;;;;;;;;;;;;14.40;68.38;101650.34;4810304;29;119867;-73
2022/09/20 07:54:22;;;;;;;;;;;;;;;14.47;68.41;101643.81;4809690;29;120225;-72
2022/09/20 07:56:48;;;;;;;;;;;;;;;14.56;68.01;101641.09;4808416;29;122144;-72
2022/09/20 07:59:14;;;;;;;;;;;;;;;14.64;68.31;101640.34;4809116;29;120058;-72
2022/09/20 08:01:41;;;;;;;;;;;;;;;14.74;68.39;101643.91;4808768;29;119579;-73
2022/09/20 08:04:14;;;;;;;;;;;;;;;14.86;68.08;101640.25;4822772;29;119973;-72
2022/09/20 08:06:41;;;;;;;;;;;;;;;15.01;68.05;101645.97;4809074;29;119873;-75
2022/09/20 08:09:08;;;;;;;;;;;;;;;15.17;67.99;101651.25;4811068;29;120073;-72
2022/09/20 08:11:38;;;;;;;;;;;;;;;15.32;67.86;101652.16;4807845;29;119961;-73
2022/09/20 08:14:04;;;;;;;;;;;;;;;15.49;67.78;101649.09;4811014;29;119948;-72
2022/09/20 08:16:30;;;;;;;;;;;;;;;15.65;67.20;101651.59;4807965;29;120534;-74
2022/09/20 08:19:00;;;;;;;;;;;;;;;15.78;66.83;101657.72;4810610;29;120201;-74
2022/09/20 08:21:30;;;;;;;;;;;;;;;15.92;66.54;101651.56;4806938;29;119858;-72
2022/09/20 08:23:56;;;;;;;;;;;;;;;16.05;65.71;101664.44;4808410;29;120217;-74
2022/09/20 08:26:25;;;;;;;;;;;;;;;16.15;65.33;101668.72;4823630;29;120084;-72
2022/09/20 08:28:52;;;;;;;;;;;;;;;16.23;65.07;101669.94;4810806;29;119544;-73
2022/09/20 08:31:19;;;;;;;;;;;;;;;16.32;65.11;101669.91;4812928;29;120007;-74
2022/09/20 08:33:45;;;;;;;;;;;;;;;16.43;65.01;101674.97;4807289;29;119946;-72
2022/09/20 08:36:11;;;;;;;;;;;;;;;16.51;64.92;101674.13;4807232;29;120722;-74
2022/09/20 08:38:37;;;;;;;;;;;;;;;16.57;64.45;101672.28;4807589;29;119952;-72
2022/09/20 08:41:05;;;;;;;;;;;;;;;16.62;64.21;101675.66;4801269;29;119564;-72
2022/09/20 08:43:43;;;;;;;;;;;;;;;16.68;63.90;101682.88;4808928;29;120122;-73
2022/09/20 08:46:12;;;;;;;;;;;;;;;16.75;63.54;101684.53;4811321;28;120065;-74
2022/09/20 08:48:38;;;;;;;;;;;;;;;16.79;63.33;101682.38;4793229;29;120434;-72
2022/09/20 08:51:06;;;;;;;;;;;;;;;16.85;63.07;101681.28;4806478;29;119680;-73
2022/09/20 08:53:33;;;;;;;;;;;;;;;16.94;63.10;101683.22;4826646;28;119467;-73
2022/09/20 08:56:03;;;;;;;;;;;;;;;17.00;62.04;101695.19;4808559;29;120583;-73
2022/09/20 08:58:29;;;;;;;;;;;;;;;17.05;61.37;101688.25;4809532;29;119968;-72
2022/09/20 09:00:57;;;;;;;;;;;;;;;17.08;61.32;101690.09;4807457;29;119533;-74
2022/09/20 09:55:52;;;;;;;;;;;;;;;17.63;57.98;101715.41;5750580;23;121474;-73
2022/09/20 09:58:39;;;;;;;;;;;;;;;17.68;58.42;101714.78;4806771;29;120824;-73
2022/09/20 10:01:11;;;;;;;;;;;;;;;17.72;58.15;101711.81;4793059;29;120127;-73
2022/09/20 10:03:47;;;;;;;;;;;;;;;17.73;56.92;101716.91;4815684;29;120224;-73
2022/09/20 10:06:35;;;;;;;;;;;;;;;17.65;55.89;101721.25;4816595;29;121016;-73
2022/09/20 10:09:20;;;;;;;;;;;;;;;17.65;56.93;101712.94;4827599;28;119967;-73
2022/09/20 10:12:03;;;;;;;;;;;;;;;17.64;55.37;101716.97;4791761;29;121948;-73
2022/09/20 10:14:51;;;;;;;;;;;;;;;17.64;55.88;101716.97;4810458;29;119868;-73
2022/09/20 10:17:33;;;;;;;;;;;;;;;17.71;56.22;101716.59;4813089;29;119907;-73
2022/09/20 10:20:28;;;;;;;;;;;;;;;17.80;56.36;101724.09;4809009;29;120309;-73
2022/09/20 10:23:07;;;;;;;;;;;;;;;17.84;55.39;101723.91;4792180;29;119686;-73
2022/09/20 10:26:02;;;;;;;;;;;;;;;17.93;55.78;101721.06;4743548;29;120171;-73
2022/09/20 10:28:27;;;;;;;;;;;;;;;17.99;56.16;101716.41;4750211;29;121886;-73
2022/09/20 10:31:08;;;;;;;;;;;;;;;18.02;56.20;101718.97;4777091;29;120138;-73
2022/09/20 10:33:42;;;;;;;;;;;;;;;18.05;56.18;101715.25;4778187;29;120156;-72
2022/09/20 10:36:46;;;;;;;;;;;;;;;18.09;55.76;101712.28;4773632;29;120323;-73
2022/09/20 10:39:16;;;;;;;;;;;;;;;18.14;54.86;101714.38;4712660;29;121011;-73
2022/09/20 10:44:50;;;;;;;;;;;;;;;18.21;54.48;101714.00;4700489;29;119726;-73
2022/09/20 10:47:20;;;;;;;;;;;;;;;18.25;54.21;101713.81;4707806;29;121341;-73
2022/09/20 10:49:50;;;;;;;;;;;;;;;18.28;52.72;101733.06;4706620;29;120129;-73
2022/09/20 10:52:15;;;;;;;;;;;;;;;18.30;53.30;101719.47;4718257;29;120314;-73
2022/09/20 10:55:04;;;;;;;;;;;;;;;18.34;53.07;101722.81;4722805;29;119703;-73
2022/09/20 10:57:37;;;;;;;;;;;;;;;18.37;52.04;101732.19;4699809;29;120160;-73
2022/09/20 11:00:03;;;;;;;;;;;;;;;18.40;52.51;101734.78;4702136;29;120211;-73
2022/09/20 11:02:43;;;;;;;;;;;;;;;18.40;51.67;101726.44;4718917;29;120306;-73
2022/09/20 11:05:28;;;;;;;;;;;;;;;18.46;52.75;101723.03;4703097;29;120229;-73
2022/09/20 11:07:59;;;;;;;;;;;;;;;18.49;52.88;101736.72;4719158;29;120370;-73
2022/09/20 11:10:29;;;;;;;;;;;;;;;18.51;53.27;101736.22;4786672;29;119976;-73
2022/09/20 11:13:01;;;;;;;;;;;;;;;18.52;52.12;101737.75;4812809;29;120009;-73
2022/09/20 11:15:30;;;;;;;;;;;;;;;18.55;52.20;101736.78;4812120;29;120330;-74
2022/09/20 11:17:59;;;;;;;;;;;;;;;18.56;52.55;101733.53;4813432;29;119552;-73
2022/09/20 11:20:27;;;;;;;;;;;;;;;18.59;52.34;101740.13;4826018;29;121086;-73
2022/09/20 11:22:56;;;;;;;;;;;;;;;18.61;52.78;101741.19;4809959;29;120878;-73
2022/09/20 11:25:32;;;;;;;;;;;;;;;18.67;52.66;101744.06;4808645;29;119587;-73
2022/09/20 11:28:08;;;;;;;;;;;;;;;18.71;52.56;101747.44;4810189;29;119841;-73
2022/09/20 11:30:35;;;;;;;;;;;;;;;18.71;52.97;101739.13;4809569;29;120217;-73
2022/09/20 11:33:09;;;;;;;;;;;;;;;18.69;52.36;101747.94;4815750;29;119712;-73
2022/09/20 11:35:49;;;;;;;;;;;;;;;18.64;50.33;101745.03;4809641;29;120005;-73
2022/09/20 11:38:24;;;;;;;;;;;;;;;18.62;49.67;101742.75;4810478;29;119846;-73
2022/09/20 11:40:59;;;;;;;;;;;;;;;18.65;50.65;101749.34;4816216;29;119508;-73
2022/09/20 11:43:27;;;;;;;;;;;;;;;18.69;51.31;101747.13;4810549;29;120084;-73
2022/09/20 11:45:57;;;;;;;;;;;;;;;18.72;51.83;101746.19;4809624;29;119633;-73
2022/09/20 11:48:54;;;;;;;;;;;;;;;18.77;52.78;101742.75;4800070;29;120215;-73
2022/09/20 11:51:23;;;;;;;;;;;;;;;18.84;52.28;101747.13;4791795;29;120316;-73
2022/09/20 11:54:38;;;;;;;;;;;;;;;18.93;52.92;101755.38;4814923;29;120034;-73
2022/09/20 11:57:06;;;;;;;;;;;;;;;19.09;52.86;101745.72;4806524;29;119636;-73
2022/09/20 11:59:34;;;;;;;;;;;;;;;19.26;52.48;101750.28;4814363;29;120189;-73
2022/09/20 12:02:02;;;;;;;;;;;;;;;19.37;50.43;101746.09;4815895;29;119695;-73
2022/09/20 12:04:30;;;;;;;;;;;;;;;19.41;49.31;101741.13;4824645;29;119691;-72
2022/09/20 12:07:18;;;;;;;;;;;;;;;19.45;49.41;101750.78;4810785;29;119623;-73
2022/09/20 12:09:45;;;;;;;;;;;;;;;19.45;48.72;101752.81;4807614;29;119628;-73
2022/09/20 12:12:14;;;;;;;;;;;;;;;19.32;47.00;101767.03;4812820;29;119801;-73
2022/09/20 12:14:41;;;;;;;;;;;;;;;19.15;46.74;101769.56;4812393;29;119544;-73
2022/09/20 12:17:52;;;;;;;;;;;;;;;18.95;45.89;101769.56;4781185;29;120438;-73
2022/09/20 12:20:33;;;;;;;;;;;;;;;18.83;46.60;101768.59;4806379;29;120028;-74
2022/09/20 12:23:17;;;;;;;;;;;;;;;18.76;48.56;101773.78;4811340;29;119957;-73
2022/09/20 12:25:59;;;;;;;;;;;;;;;18.81;49.90;101768.31;4827602;29;119735;-73
2022/09/20 12:28:33;;;;;;;;;;;;;;;18.91;49.51;101763.41;4805146;29;119628;-73
2022/09/20 12:31:36;;;;;;;;;;;;;;;19.04;50.37;101769.44;4806176;29;119723;-73
2022/09/20 12:34:09;;;;;;;;;;;;;;;19.17;49.04;101758.00;4740305;29;119505;-73
2022/09/20 12:36:37;;;;;;;;;;;;;;;19.21;46.63;101764.88;4799527;29;120294;-73
2022/09/20 12:39:14;;;;;;;;;;;;;;;19.27;46.36;101767.72;4808802;29;119517;-73
2022/09/20 12:41:59;;;;;;;;;;;;;;;19.37;46.04;101766.34;4809815;29;119531;-73
2022/09/20 12:44:25;;;;;;;;;;;;;;;19.46;45.57;101766.22;4806682;29;119785;-73
2022/09/20 12:47:09;;;;;;;;;;;;;;;19.50;45.29;101769.56;4805167;29;120522;-73
2022/09/20 12:52:49;;;;;;;;;;;;;;;19.60;45.50;101765.41;4805087;29;120782;-73
2022/09/20 12:55:28;;;;;;;;;;;;;;;19.60;44.88;101761.84;4806411;29;120612;-73
2022/09/20 12:58:12;;;;;;;;;;;;;;;19.59;45.21;101758.31;4808874;29;120254;-73
2022/09/20 13:00:43;;;;;;;;;;;;;;;19.55;44.79;101765.34;4806361;29;120173;-72
2022/09/20 13:03:11;;;;;;;;;;;;;;;19.47;44.29;101764.22;4812825;29;118901;-72
2022/09/20 13:05:39;;;;;;;;;;;;;;;19.37;44.43;101766.34;4808699;29;120062;-72
2022/09/20 13:08:12;;;;;;;;;;;;;;;19.33;44.63;101765.78;4790396;29;120523;-72
2022/09/20 13:10:56;;;;;;;;;;;;;;;19.35;45.19;101766.06;4810512;29;119861;-71
2022/09/20 13:13:22;;;;;;;;;;;;;;;19.41;44.71;101766.94;4811132;29;119565;-71
2022/09/20 13:15:49;;;;;;;;;;;;;;;19.49;44.83;101762.47;4805093;29;120490;-72
2022/09/20 13:18:16;;;;;;;;;;;;;;;19.59;45.21;101771.47;4808406;29;120164;-72
2022/09/20 13:20:41;;;;;;;;;;;;;;;19.57;43.91;101765.63;4816565;29;119615;-71
2022/09/20 13:23:15;;;;;;;;;;;;;;;19.51;44.35;101767.53;4805432;29;120395;-72
2022/09/20 13:25:42;;;;;;;;;;;;;;;19.50;43.81;101769.56;4805728;29;120226;-72
2022/09/20 13:28:12;;;;;;;;;;;;;;;19.51;43.57;101773.13;4807256;29;120563;-72
2022/09/20 13:30:39;;;;;;;;;;;;;;;19.52;44.01;101775.41;4810445;29;120107;-71
2022/09/20 13:33:16;;;;;;;;;;;;;;;19.42;43.28;101776.81;4807591;29;120901;-72
2022/09/20 13:35:45;;;;;;;;;;;;;;;19.35;43.56;101779.22;4811871;29;119767;-72
2022/09/20 13:38:21;;;;;;;;;;;;;;;19.27;43.75;101779.63;4806176;29;120216;-72
2022/09/20 13:40:49;;;;;;;;;;;;;;;19.19;43.91;101783.31;4809485;29;119714;-72
2022/09/20 13:43:21;;;;;;;;;;;;;;;19.08;43.70;101794.25;4807279;29;119922;-72
2022/09/20 13:45:49;;;;;;;;;;;;;;;19.01;43.77;101789.88;4815853;29;119482;-72
2022/09/20 13:48:15;;;;;;;;;;;;;;;18.95;44.30;101792.56;4791414;29;121082;-72
2022/09/20 13:50:41;;;;;;;;;;;;;;;18.92;45.88;101798.28;4805818;29;119890;-71
2022/09/20 13:53:34;;;;;;;;;;;;;;;18.85;46.66;101795.91;4798509;29;120189;-71
2022/09/20 13:56:00;;;;;;;;;;;;;;;18.79;47.67;101795.06;4810489;29;119579;-72
2022/09/20 13:58:27;;;;;;;;;;;;;;;18.71;48.18;101791.91;4790415;29;120052;-72
2022/09/20 14:00:54;;;;;;;;;;;;;;;18.64;48.75;101792.28;4808750;29;120685;-72
2022/09/20 14:03:24;;;;;;;;;;;;;;;18.56;48.80;101799.44;4804395;29;120457;-72
2022/09/20 14:05:52;;;;;;;;;;;;;;;18.61;49.70;101794.00;4806893;29;119776;-72
2022/09/20 14:08:50;;;;;;;;;;;;;;;18.74;49.07;101792.97;4767804;29;120509;-72